Time;durP1;ratioP1;P1;durP2;ratioP2;P2;SDS_P1;SDS_P2;PMS_P1;PMS_P2;Temp;Humidity;BMP_temperature;BMP_pressure;BME280_temperature;BME280_humidity;BME280_pressure;Samples;Min_cycle;Max_cycle;Signal;HPM_P1;HPM_P2
2023/05/02 00:02:10;;;;;;;18.98;6.53;;;11.00;99.90;;;;;;5071449;28;20028;-74
2023/05/02 00:04:36;;;;;;;18.25;6.47;;;11.00;99.90;;;;;;5056212;28;20025;-73
2023/05/02 00:07:01;;;;;;;15.77;6.55;;;11.00;99.90;;;;;;5035038;28;20534;-73
2023/05/02 00:09:28;;;;;;;15.32;6.35;;;11.00;99.90;;;;;;5053085;28;20032;-72
2023/05/02 00:11:53;;;;;;;16.50;6.53;;;11.00;99.90;;;;;;5052984;28;20021;-74
2023/05/02 00:14:19;;;;;;;18.15;7.78;;;11.00;99.90;;;;;;5035029;28;20501;-73
2023/05/02 00:16:45;;;;;;;18.25;6.88;;;11.10;99.90;;;;;;5053059;28;20036;-72
2023/05/02 00:19:10;;;;;;;20.42;8.30;;;11.00;99.90;;;;;;5052873;28;20024;-73
2023/05/02 00:21:36;;;;;;;21.33;7.65;;;11.00;99.90;;;;;;5052793;28;20040;-72
2023/05/02 00:24:02;;;;;;;20.25;7.35;;;11.00;99.90;;;;;;5052798;28;20074;-72
2023/05/02 00:26:30;;;;;;;20.38;7.82;;;11.00;99.90;;;;;;5034999;28;20040;-72
2023/05/02 00:28:59;;;;;;;21.67;7.25;;;11.00;99.90;;;;;;5088151;28;20031;-72
2023/05/02 00:31:25;;;;;;;17.00;6.50;;;11.00;99.90;;;;;;5092934;28;20467;-73
2023/05/02 00:33:50;;;;;;;19.50;7.35;;;11.10;99.90;;;;;;5058987;28;20020;-73
2023/05/02 00:36:18;;;;;;;17.55;7.38;;;11.00;99.90;;;;;;5072774;28;20036;-74
2023/05/02 00:38:44;;;;;;;14.77;7.18;;;11.10;99.90;;;;;;5072760;28;20021;-73
2023/05/02 00:41:10;;;;;;;13.73;6.15;;;11.10;99.90;;;;;;5072716;28;20028;-73
2023/05/02 00:43:36;;;;;;;14.30;4.95;;;11.10;99.90;;;;;;5072703;28;20024;-73
2023/05/02 00:46:02;;;;;;;13.43;4.30;;;11.10;99.90;;;;;;5071924;28;20043;-73
2023/05/02 00:48:27;;;;;;;11.00;5.40;;;11.10;99.90;;;;;;5054668;28;20021;-73
2023/05/02 00:50:53;;;;;;;7.70;2.92;;;11.10;99.90;;;;;;5072642;28;20020;-73
2023/05/02 00:53:19;;;;;;;8.98;3.50;;;11.20;99.90;;;;;;5073956;28;20488;-73
2023/05/02 00:55:44;;;;;;;11.32;2.72;;;11.10;99.90;;;;;;5076447;28;20031;-73
2023/05/02 00:58:15;;;;;;;11.65;2.78;;;11.10;99.90;;;;;;5076116;28;20075;-73
2023/05/02 01:01:28;;;;;;;7.40;2.35;;;11.10;99.90;;;;;;5076392;28;20036;-73
2023/05/02 01:04:03;;;;;;;9.80;2.88;;;11.10;99.90;;;;;;4975327;28;20565;-73
2023/05/02 01:06:41;;;;;;;9.32;2.47;;;11.10;99.90;;;;;;4975960;28;20046;-72
2023/05/02 01:10:01;;;;;;;6.40;1.80;;;11.10;99.90;;;;;;5029367;28;20041;-73
2023/05/02 01:12:34;;;;;;;6.28;1.27;;;11.10;99.90;;;;;;4975292;28;20041;-74
2023/05/02 01:15:03;;;;;;;7.35;1.20;;;11.20;99.90;;;;;;5044508;28;20030;-73
2023/05/02 01:17:31;;;;;;;12.45;1.10;;;11.10;99.90;;;;;;5056010;28;20486;-73
2023/05/02 01:20:07;;;;;;;12.90;2.55;;;11.10;99.90;;;;;;5038006;28;20119;-73
2023/05/02 01:22:36;;;;;;;15.38;1.95;;;11.10;99.90;;;;;;5055874;28;20598;-73
2023/05/02 01:25:26;;;;;;;7.57;0.85;;;11.10;99.90;;;;;;5055906;28;20071;-73
2023/05/02 01:28:37;;;;;;;5.10;1.00;;;11.00;99.90;;;;;;5037874;28;20033;-74
2023/05/02 01:31:04;;;;;;;5.95;0.50;;;10.90;99.90;;;;;;5056317;28;20017;-73
2023/05/02 01:33:32;;;;;;;6.85;0.73;;;10.90;99.90;;;;;;5047340;28;20024;-74
2023/05/02 01:35:59;;;;;;;4.55;1.02;;;10.80;99.90;;;;;;5075702;28;20066;-74
2023/05/02 01:38:29;;;;;;;7.35;0.82;;;10.70;99.90;;;;;;5075550;28;20078;-73
2023/05/02 01:40:57;;;;;;;5.85;0.35;;;10.70;99.90;;;;;;5075830;28;20039;-73
2023/05/02 01:43:24;;;;;;;8.07;1.27;;;10.60;99.90;;;;;;5075541;28;20046;-74
2023/05/02 01:45:52;;;;;;;3.97;0.77;;;10.60;99.90;;;;;;5057566;28;20332;-73
2023/05/02 01:48:19;;;;;;;10.23;0.70;;;10.60;99.90;;;;;;5074613;28;20030;-73
2023/05/02 01:50:47;;;;;;;6.15;0.80;;;10.60;99.90;;;;;;5057408;28;20020;-74
2023/05/02 01:53:14;;;;;;;9.68;1.00;;;10.60;99.90;;;;;;5075431;28;20476;-74
2023/05/02 01:55:42;;;;;;;6.57;0.65;;;10.50;99.90;;;;;;5075343;28;20372;-73
2023/05/02 01:58:09;;;;;;;1.13;0.17;;;10.40;99.90;;;;;;5075109;28;20074;-74
2023/05/02 02:00:35;;;;;;;5.25;1.02;;;10.40;99.90;;;;;;5057202;28;20503;-74
2023/05/02 02:03:04;;;;;;;9.07;0.30;;;10.40;99.90;;;;;;5043957;28;20377;-74
2023/05/02 02:05:31;;;;;;;4.00;0.22;;;10.30;99.90;;;;;;5037116;28;20445;-73
2023/05/02 02:07:57;;;;;;;3.50;0.57;;;10.30;99.90;;;;;;5055089;28;20056;-74
2023/05/02 02:10:26;;;;;;;2.03;0.00;;;10.30;99.90;;;;;;5037078;28;20511;-73
2023/05/02 02:12:52;;;;;;;;;;;10.30;99.90;;;;;;5058752;28;20020;-74
2023/05/02 02:15:27;;;;;;;13.52;0.55;;;10.30;99.90;;;;;;5075526;28;19905;-73
2023/05/02 02:18:12;;;;;;;7.07;0.10;;;10.20;99.90;;;;;;5056890;28;20120;-74
2023/05/02 02:20:39;;;;;;;2.30;0.00;;;10.20;99.90;;;;;;5074780;28;20020;-74
2023/05/02 02:23:07;;;;;;;3.67;0.10;;;10.20;99.90;;;;;;5074829;28;20028;-74
2023/05/02 02:25:34;;;;;;;4.55;0.63;;;10.20;99.90;;;;;;5074728;28;20032;-75
2023/05/02 02:28:00;;;;;;;2.00;0.00;;;10.10;99.90;;;;;;5057269;28;20029;-74
2023/05/02 02:30:26;;;;;;;2.63;0.10;;;10.10;99.90;;;;;;5036658;28;20021;-73
2023/05/02 02:32:52;;;;;;;1.02;0.10;;;10.10;99.90;;;;;;5054584;28;20028;-73
2023/05/02 02:35:18;;;;;;;4.55;0.52;;;10.10;99.90;;;;;;5054634;28;20380;-73
2023/05/02 02:37:48;;;;;;;3.33;0.28;;;10.10;99.90;;;;;;5054443;28;20029;-74
2023/05/02 02:40:29;;;;;;;4.32;0.03;;;10.10;99.90;;;;;;5054665;28;20033;-74
2023/05/02 02:43:07;;;;;;;1.92;0.00;;;10.10;99.90;;;;;;5043904;28;20021;-74
2023/05/02 02:45:54;;;;;;;2.53;0.17;;;10.10;99.90;;;;;;5074320;28;20035;-74
2023/05/02 02:48:55;;;;;;;6.63;0.20;;;10.00;99.90;;;;;;5056194;28;20032;-74
2023/05/02 02:51:47;;;;;;;5.85;0.65;;;10.00;99.90;;;;;;5019014;28;20082;-75
2023/05/02 02:54:22;;;;;;;2.00;0.10;;;10.00;99.90;;;;;;5072167;28;20488;-74
2023/05/02 02:56:57;;;;;;;2.80;0.00;;;10.00;99.90;;;;;;5054156;28;20087;-74
2023/05/02 02:59:28;;;;;;;3.50;0.15;;;10.00;99.90;;;;;;5036205;28;20121;-74
2023/05/02 03:02:03;;;;;;;4.22;0.20;;;10.00;99.90;;;;;;5054693;28;20433;-74
2023/05/02 03:04:31;;;;;;;2.85;0.50;;;10.00;99.90;;;;;;5054209;28;20228;-74
2023/05/02 03:06:57;;;;;;;2.80;0.60;;;10.00;99.90;;;;;;5053979;28;20036;-73
2023/05/02 03:09:22;;;;;;;6.47;0.45;;;10.00;99.90;;;;;;5065539;28;20097;-74
2023/05/02 03:11:48;;;;;;;5.35;0.75;;;10.00;99.90;;;;;;5074360;28;20025;-74
2023/05/02 03:14:14;;;;;;;8.13;0.47;;;10.00;99.90;;;;;;5055936;28;20138;-74
2023/05/02 03:16:40;;;;;;;3.05;0.40;;;9.90;99.90;;;;;;5055558;28;20012;-74
2023/05/02 03:19:07;;;;;;;11.32;0.10;;;9.90;99.90;;;;;;5073691;28;20074;-74
2023/05/02 03:21:33;;;;;;;2.80;0.00;;;9.90;99.90;;;;;;5073631;28;20016;-74
2023/05/02 03:24:02;;;;;;;4.75;0.05;;;9.80;99.90;;;;;;5056248;28;20413;-74
2023/05/02 03:26:28;;;;;;;4.20;0.38;;;9.80;99.90;;;;;;5035705;28;20070;-74
2023/05/02 03:28:55;;;;;;;2.53;0.08;;;9.80;99.90;;;;;;5053408;28;20033;-73
2023/05/02 03:31:21;;;;;;;2.00;0.10;;;9.80;99.90;;;;;;5054020;28;20020;-74
2023/05/02 03:33:47;;;;;;;2.70;0.00;;;9.80;99.90;;;;;;5053465;28;20512;-74
2023/05/02 03:36:14;;;;;;;1.55;0.00;;;9.80;99.90;;;;;;5053370;28;20024;-74
2023/05/02 03:38:39;;;;;;;5.72;0.47;;;9.80;99.90;;;;;;5053526;28;20044;-74
2023/05/02 03:41:05;;;;;;;5.68;0.57;;;9.70;99.90;;;;;;5053321;28;20021;-75
2023/05/02 03:43:31;;;;;;;4.20;0.28;;;9.70;99.90;;;;;;5053423;28;20090;-74
2023/05/02 03:45:57;;;;;;;8.57;0.80;;;9.70;99.90;;;;;;5035501;28;20032;-75
2023/05/02 03:48:23;;;;;;;3.60;0.00;;;9.60;99.90;;;;;;5053129;28;20025;-74
2023/05/02 03:50:49;;;;;;;5.80;0.10;;;9.60;99.90;;;;;;5053163;28;20017;-75
2023/05/02 03:53:15;;;;;;;3.22;0.10;;;9.50;99.90;;;;;;5035430;28;20010;-74
2023/05/02 03:55:42;;;;;;;3.03;0.25;;;9.50;99.90;;;;;;5053180;28;20491;-74
2023/05/02 03:58:09;;;;;;;3.20;0.40;;;9.30;99.90;;;;;;5035207;28;20500;-72
2023/05/02 04:00:35;;;;;;;1.63;0.40;;;9.30;99.90;;;;;;5053148;28;20100;-73
2023/05/02 04:03:01;;;;;;;5.55;0.75;;;9.20;99.90;;;;;;5056447;28;20116;-75
2023/05/02 04:05:30;;;;;;;2.80;0.30;;;9.10;99.90;;;;;;5066854;28;20108;-73
2023/05/02 04:07:58;;;;;;;1.60;0.00;;;9.00;99.90;;;;;;5053105;28;20029;-73
2023/05/02 04:10:24;;;;;;;8.10;0.03;;;9.00;99.90;;;;;;5053313;28;20027;-73
2023/05/02 04:12:49;;;;;;;2.33;0.00;;;9.00;99.90;;;;;;5053010;28;20025;-73
2023/05/02 04:15:15;;;;;;;7.22;0.22;;;8.90;99.90;;;;;;5053037;28;20017;-74
2023/05/02 04:17:41;;;;;;;3.72;0.00;;;8.90;99.90;;;;;;5060762;28;20017;-73
2023/05/02 04:20:07;;;;;;;4.97;0.25;;;8.90;99.90;;;;;;5068392;28;20037;-73
2023/05/02 04:22:33;;;;;;;3.42;0.13;;;8.80;99.90;;;;;;5073192;28;20511;-75
2023/05/02 04:24:59;;;;;;;3.03;0.32;;;8.80;99.90;;;;;;5054940;28;20024;-73
2023/05/02 04:27:25;;;;;;;7.18;0.13;;;8.70;99.90;;;;;;5072815;28;20020;-74
2023/05/02 04:29:52;;;;;;;4.47;0.52;;;8.70;99.90;;;;;;5076913;28;20024;-74
2023/05/02 04:32:18;;;;;;;3.97;0.80;;;8.60;99.90;;;;;;5076817;28;20013;-73
2023/05/02 04:34:43;;;;;;;5.55;0.10;;;8.60;99.90;;;;;;5076843;28;20032;-73
2023/05/02 04:37:09;;;;;;;3.03;0.20;;;8.70;99.90;;;;;;5058777;28;20016;-73
2023/05/02 04:39:35;;;;;;;6.63;0.43;;;8.70;99.90;;;;;;5076847;28;20129;-73
2023/05/02 04:42:00;;;;;;;7.05;0.98;;;8.80;99.90;;;;;;5076809;28;20032;-73
2023/05/02 04:44:26;;;;;;;8.13;0.35;;;8.80;99.90;;;;;;5077271;28;20035;-75
2023/05/02 04:46:52;;;;;;;8.93;0.10;;;8.90;99.90;;;;;;5075852;28;20052;-75
2023/05/02 04:49:17;;;;;;;11.60;0.98;;;8.90;99.90;;;;;;5058511;28;20070;-73
2023/05/02 04:51:43;;;;;;;3.10;0.30;;;9.00;99.90;;;;;;5058564;28;20383;-73
2023/05/02 04:54:09;;;;;;;4.70;0.50;;;9.00;99.90;;;;;;5076559;28;20105;-74
2023/05/02 04:56:34;;;;;;;5.43;0.10;;;9.00;99.90;;;;;;5076554;28;20024;-73
2023/05/02 04:59:00;;;;;;;3.05;0.20;;;9.10;99.90;;;;;;5076325;28;20039;-73
2023/05/02 05:01:26;;;;;;;5.90;0.13;;;9.10;99.90;;;;;;5076564;28;20048;-73
2023/05/02 05:03:53;;;;;;;6.18;0.45;;;9.10;99.90;;;;;;5076283;28;20484;-73
2023/05/02 05:06:18;;;;;;;5.63;0.10;;;9.10;99.90;;;;;;5058291;28;20028;-75
2023/05/02 05:08:45;;;;;;;4.85;0.28;;;9.20;99.90;;;;;;5058148;28;20392;-75
2023/05/02 05:11:11;;;;;;;8.85;1.17;;;9.20;99.90;;;;;;5076196;28;20020;-75
2023/05/02 05:13:36;;;;;;;8.52;0.73;;;9.20;99.90;;;;;;5050655;28;20036;-73
2023/05/02 05:16:03;;;;;;;7.82;0.10;;;9.30;99.90;;;;;;5038219;28;20017;-73
2023/05/02 05:18:29;;;;;;;4.80;0.68;;;9.30;99.90;;;;;;5038381;28;20017;-73
2023/05/02 05:20:54;;;;;;;8.13;0.77;;;9.30;99.90;;;;;;5056176;28;20047;-74
2023/05/02 05:23:20;;;;;;;6.13;0.68;;;9.40;99.90;;;;;;5055947;28;20104;-74
2023/05/02 05:25:46;;;;;;;6.07;0.73;;;9.40;99.90;;;;;;5055772;28;20146;-73
2023/05/02 05:28:11;;;;;;;3.97;0.75;;;9.50;99.90;;;;;;5056036;28;20021;-73
2023/05/02 05:30:37;;;;;;;10.60;0.77;;;9.50;99.90;;;;;;5037882;28;20048;-73
2023/05/02 05:33:03;;;;;;;11.60;1.15;;;9.60;99.90;;;;;;5055825;28;20476;-73
2023/05/02 05:35:30;;;;;;;7.05;0.40;;;9.60;99.90;;;;;;5037904;28;20087;-73
2023/05/02 05:37:56;;;;;;;5.63;0.47;;;9.70;99.90;;;;;;5037773;28;20436;-75
2023/05/02 05:40:22;;;;;;;11.30;0.47;;;9.70;99.90;;;;;;5037622;28;20025;-74
2023/05/02 05:42:47;;;;;;;5.68;0.22;;;9.70;99.90;;;;;;5073463;28;20048;-73
2023/05/02 05:45:13;;;;;;;7.00;1.02;;;9.70;99.90;;;;;;5057502;28;20070;-73
2023/05/02 05:47:39;;;;;;;2.80;0.30;;;9.70;99.90;;;;;;5075365;28;20074;-74
2023/05/02 05:50:06;;;;;;;7.68;0.10;;;9.70;99.90;;;;;;5075355;28;20435;-74
2023/05/02 05:52:31;;;;;;;11.65;1.10;;;9.70;99.90;;;;;;5075326;28;20073;-75
2023/05/02 05:54:57;;;;;;;8.05;1.02;;;9.60;99.90;;;;;;5073362;28;20017;-75
2023/05/02 05:57:22;;;;;;;4.93;0.20;;;9.70;99.90;;;;;;5054921;28;20025;-75
2023/05/02 05:59:48;;;;;;;4.90;0.40;;;9.70;99.90;;;;;;5055516;28;20036;-74
2023/05/02 06:02:15;;;;;;;6.68;0.40;;;9.70;99.90;;;;;;5036896;28;20037;-75
2023/05/02 06:04:40;;;;;;;4.97;0.77;;;9.80;99.90;;;;;;5067675;28;20494;-74
2023/05/02 06:07:06;;;;;;;5.45;0.32;;;9.90;99.90;;;;;;5055002;28;20059;-74
2023/05/02 06:09:32;;;;;;;5.40;0.50;;;9.90;99.90;;;;;;5074191;28;20056;-75
2023/05/02 06:11:57;;;;;;;7.22;0.45;;;10.00;99.90;;;;;;5075029;28;20021;-74
2023/05/02 06:14:23;;;;;;;7.93;1.70;;;10.00;99.90;;;;;;5073711;28;20451;-74
2023/05/02 06:16:48;;;;;;;8.35;0.32;;;10.10;99.90;;;;;;5075111;28;20029;-74
2023/05/02 06:19:14;;;;;;;5.95;0.98;;;10.20;99.90;;;;;;5055029;28;20069;-74
2023/05/02 06:21:41;;;;;;;5.43;0.98;;;10.30;99.90;;;;;;5054970;28;20104;-74
2023/05/02 06:24:06;;;;;;;5.93;0.90;;;10.30;99.90;;;;;;5054725;28;20027;-74
2023/05/02 06:26:32;;;;;;;10.80;0.85;;;10.40;99.90;;;;;;5054722;28;20021;-74
2023/05/02 06:28:57;;;;;;;4.70;0.75;;;10.40;99.90;;;;;;5036748;28;20017;-74
2023/05/02 06:31:23;;;;;;;3.13;0.00;;;10.40;99.90;;;;;;5058522;28;20021;-74
2023/05/02 06:33:50;;;;;;;2.97;0.43;;;11.10;99.90;;;;;;5040354;28;20032;-73
2023/05/02 06:36:15;;;;;;;4.18;0.10;;;10.40;99.90;;;;;;5054605;28;20021;-74
2023/05/02 06:38:41;;;;;;;2.28;0.15;;;10.40;99.90;;;;;;5036336;28;20020;-74
2023/05/02 06:41:13;;;;;;;8.40;1.42;;;10.50;99.90;;;;;;5036689;28;20029;-74
2023/05/02 06:43:38;;;;;;;1.92;0.15;;;10.60;99.90;;;;;;5036504;28;20385;-74
2023/05/02 06:46:04;;;;;;;2.58;0.00;;;10.60;99.90;;;;;;5064154;28;20050;-73
2023/05/02 06:48:29;;;;;;;5.72;0.10;;;10.70;99.90;;;;;;5074218;28;20111;-71
2023/05/02 06:50:55;;;;;;;2.38;0.65;;;10.80;99.90;;;;;;5073940;28;20391;-71
2023/05/02 06:53:20;;;;;;;2.22;0.00;;;10.80;99.90;;;;;;5074532;28;20024;-71
2023/05/02 06:55:47;;;;;;;1.80;0.10;;;10.80;99.90;;;;;;5074509;28;20495;-71
2023/05/02 06:58:13;;;;;;;4.18;0.65;;;10.70;99.90;;;;;;5073770;28;20414;-72
2023/05/02 07:00:39;;;;;;;4.80;0.00;;;10.60;99.90;;;;;;5074005;28;20020;-72
2023/05/02 07:03:05;;;;;;;3.80;0.30;;;10.70;99.90;;;;;;5074107;28;20108;-71
2023/05/02 07:05:30;;;;;;;5.07;0.68;;;10.70;99.90;;;;;;5074045;28;20111;-72
2023/05/02 07:07:56;;;;;;;4.68;0.10;;;10.60;99.90;;;;;;5055989;28;20029;-71
2023/05/02 07:10:22;;;;;;;8.15;0.50;;;10.60;99.90;;;;;;5073987;28;20028;-72
2023/05/02 07:12:47;;;;;;;3.40;0.65;;;10.50;99.90;;;;;;5047342;28;20082;-73
2023/05/02 07:15:15;;;;;;;2.85;0.25;;;10.50;99.90;;;;;;5036184;28;20016;-71
2023/05/02 07:17:41;;;;;;;6.53;1.13;;;10.50;99.90;;;;;;5054056;28;20013;-71
2023/05/02 07:20:07;;;;;;;2.75;0.10;;;10.60;99.90;;;;;;5037293;28;20175;-71
2023/05/02 07:22:33;;;;;;;4.15;0.10;;;10.50;99.90;;;;;;5036078;28;20028;-71
2023/05/02 07:25:01;;;;;;;7.97;0.65;;;10.50;99.90;;;;;;5053997;28;20025;-71
2023/05/02 07:27:27;;;;;;;6.00;0.55;;;10.50;99.90;;;;;;5057353;28;20082;-71
2023/05/02 07:29:52;;;;;;;5.78;0.70;;;10.50;99.90;;;;;;5054220;28;20029;-71
2023/05/02 07:32:20;;;;;;;6.28;0.15;;;10.50;99.90;;;;;;5054204;28;20029;-71
2023/05/02 07:34:46;;;;;;;4.10;0.40;;;10.50;99.90;;;;;;5053567;28;20499;-70
2023/05/02 07:37:13;;;;;;;5.38;0.10;;;10.60;99.90;;;;;;5053584;28;20432;-71
2023/05/02 07:39:38;;;;;;;4.20;0.10;;;10.60;99.90;;;;;;5035602;28;20031;-71
2023/05/02 07:42:05;;;;;;;3.40;0.00;;;10.80;99.90;;;;;;5053782;28;20025;-71
2023/05/02 07:44:32;;;;;;;4.15;0.77;;;10.80;99.90;;;;;;5053441;28;20392;-71
2023/05/02 07:46:57;;;;;;;2.80;0.32;;;11.00;99.90;;;;;;5053461;28;20053;-71
2023/05/02 07:49:23;;;;;;;4.07;0.00;;;11.00;99.90;;;;;;5035609;28;20514;-71
2023/05/02 07:51:49;;;;;;;6.38;0.90;;;11.00;99.90;;;;;;5035659;28;20523;-71
2023/05/02 07:54:25;;;;;;;3.70;0.35;;;11.10;99.90;;;;;;5053448;28;20043;-72
2023/05/02 07:56:50;;;;;;;2.97;0.08;;;11.20;99.90;;;;;;5054167;28;20146;-72
2023/05/02 07:59:16;;;;;;;5.05;0.10;;;11.30;99.90;;;;;;5035110;28;20063;-72
2023/05/02 08:01:43;;;;;;;4.68;0.00;;;11.30;99.90;;;;;;5053095;28;20090;-72
2023/05/02 08:04:10;;;;;;;1.20;0.00;;;11.30;99.90;;;;;;5053816;28;20041;-73
2023/05/02 08:06:36;;;;;;;2.42;0.00;;;11.40;99.90;;;;;;5035338;28;20477;-72
2023/05/02 08:09:01;;;;;;;2.38;0.08;;;11.40;99.90;;;;;;5053209;28;20031;-72
2023/05/02 08:11:27;;;;;;;5.72;0.10;;;11.40;99.90;;;;;;5035326;28;20503;-72
2023/05/02 08:13:53;;;;;;;2.60;0.00;;;11.20;99.90;;;;;;5053557;28;20020;-72
2023/05/02 08:16:19;;;;;;;7.30;0.73;;;11.10;99.90;;;;;;5053638;28;20021;-72
2023/05/02 08:18:45;;;;;;;2.42;0.38;;;11.10;99.90;;;;;;5053087;28;20017;-72
2023/05/02 08:21:11;;;;;;;5.57;0.38;;;11.10;99.90;;;;;;5052949;28;20095;-75
2023/05/02 08:23:37;;;;;;;2.38;0.28;;;11.20;99.90;;;;;;5035066;28;20112;-75
2023/05/02 08:26:03;;;;;;;17.85;1.13;;;11.30;99.90;;;;;;5052903;28;20090;-75
2023/05/02 08:28:29;;;;;;;4.85;0.10;;;11.30;99.90;;;;;;5064488;28;20025;-75
2023/05/02 08:30:55;;;;;;;1.17;0.00;;;11.40;99.90;;;;;;5072526;28;20028;-75
2023/05/02 08:33:21;;;;;;;1.30;0.00;;;11.40;99.90;;;;;;5054977;28;20383;-75
2023/05/02 08:35:47;;;;;;;3.40;0.00;;;11.70;99.90;;;;;;5073384;28;20023;-75
2023/05/02 08:38:13;;;;;;;2.55;0.35;;;12.00;99.90;;;;;;5072771;28;20047;-75
2023/05/02 08:40:39;;;;;;;4.75;0.05;;;12.10;99.90;;;;;;5072794;28;20020;-75
2023/05/02 08:43:05;;;;;;;2.38;1.05;;;12.70;99.90;;;;;;5073292;28;20031;-75
2023/05/02 08:45:43;;;;;;;3.22;0.13;;;13.00;99.90;;;;;;5035164;28;20369;-76
2023/05/02 08:48:12;;;;;;;2.42;0.17;;;13.00;99.90;;;;;;5052725;28;20040;-75
2023/05/02 08:50:40;;;;;;;3.80;0.00;;;13.00;99.90;;;;;;5034823;28;20017;-75
2023/05/02 08:53:06;;;;;;;2.50;0.15;;;;;;;;;;5034833;28;20029;-75
2023/05/02 08:55:35;;;;;;;2.63;0.00;;;12.80;99.90;;;;;;5034800;28;20476;-75
2023/05/02 08:58:03;;;;;;;2.60;0.00;;;12.60;99.90;;;;;;5052630;28;20020;-76
2023/05/02 09:00:29;;;;;;;5.40;0.30;;;12.50;99.90;;;;;;5052581;28;20494;-75
2023/05/02 09:03:03;;;;;;;2.30;0.00;;;12.60;99.90;;;;;;5052558;28;20045;-75
2023/05/02 09:05:36;;;;;;;2.70;0.00;;;12.50;99.90;;;;;;5034712;28;20027;-75
2023/05/02 09:08:02;;;;;;;3.30;0.10;;;12.40;99.90;;;;;;5052505;28;20537;-75
2023/05/02 09:10:28;;;;;;;2.33;0.60;;;12.50;99.90;;;;;;5052683;28;20021;-75
2023/05/02 09:12:53;;;;;;;1.33;0.00;;;12.60;99.90;;;;;;5056400;28;20040;-76
2023/05/02 09:15:19;;;;;;;5.22;0.15;;;12.60;99.90;;;;;;5055225;28;20013;-75
2023/05/02 09:17:47;;;;;;;4.03;0.00;;;12.60;99.90;;;;;;5055999;28;20040;-75
2023/05/02 09:20:14;;;;;;;3.47;0.05;;;12.60;99.90;;;;;;5038282;28;20017;-74
2023/05/02 09:22:51;;;;;;;3.30;0.22;;;12.60;99.90;;;;;;5056045;28;20556;-74
2023/05/02 09:25:18;;;;;;;2.22;0.20;;;12.70;99.90;;;;;;5055942;28;20059;-74
2023/05/02 09:27:52;;;;;;;1.95;0.25;;;12.70;99.90;;;;;;5066348;28;20035;-74
2023/05/02 09:30:22;;;;;;;1.92;0.20;;;12.60;99.90;;;;;;5075562;28;20060;-74
2023/05/02 09:32:50;;;;;;;3.50;0.00;;;12.60;99.90;;;;;;5076096;28;20124;-74
2023/05/02 09:35:22;;;;;;;4.28;0.00;;;12.70;99.90;;;;;;5075800;28;20023;-74
2023/05/02 09:37:50;;;;;;;4.78;0.00;;;12.60;99.90;;;;;;5075955;28;20033;-74
2023/05/02 09:40:16;;;;;;;4.68;0.00;;;12.70;99.00;;;;;;5075737;28;20025;-74
2023/05/02 09:42:41;;;;;;;3.00;0.10;;;12.80;99.90;;;;;;5075681;28;20078;-74
2023/05/02 09:45:08;;;;;;;1.80;0.00;;;12.80;97.30;;;;;;5073478;28;20028;-74
2023/05/02 09:47:35;;;;;;;3.25;0.47;;;13.00;98.30;;;;;;5075445;28;20032;-74
2023/05/02 09:50:01;;;;;;;2.58;0.00;;;13.80;97.80;;;;;;5076154;28;20100;-74
2023/05/02 09:52:26;;;;;;;1.98;0.00;;;13.10;96.00;;;;;;5075487;28;20266;-74
2023/05/02 09:54:52;;;;;;;2.17;0.00;;;15.30;95.70;;;;;;5075403;28;20017;-73
2023/05/02 09:57:18;;;;;;;4.90;0.68;;;13.70;96.90;;;;;;5055535;28;20153;-74
2023/05/02 09:59:57;;;;;;;2.95;0.13;;;13.70;96.60;;;;;;5055394;28;20405;-74
2023/05/02 10:02:24;;;;;;;5.53;0.20;;;14.40;92.20;;;;;;5037567;28;20032;-74
2023/05/02 10:04:52;;;;;;;2.83;0.00;;;14.30;93.10;;;;;;5054540;28;20494;-74
2023/05/02 10:07:19;;;;;;;1.20;0.07;;;14.50;92.70;;;;;;5075219;28;20028;-76
2023/05/02 10:09:46;;;;;;;3.10;0.20;;;14.80;91.50;;;;;;5075133;28;20285;-74
2023/05/02 10:12:14;;;;;;;3.35;0.00;;;14.30;90.90;;;;;;5075180;28;20104;-74
2023/05/02 10:14:44;;;;;;;1.70;0.03;;;14.00;88.30;;;;;;5057099;28;20017;-74
2023/05/02 10:17:15;;;;;;;1.60;0.03;;;13.90;92.20;;;;;;5053792;28;20115;-74
2023/05/02 10:20:02;;;;;;;3.35;0.00;;;14.00;91.80;;;;;;5055484;28;20025;-74
2023/05/02 10:22:30;;;;;;;5.88;0.30;;;14.30;87.00;;;;;;5054935;28;20028;-74
2023/05/02 10:24:58;;;;;;;3.03;0.00;;;14.30;89.00;;;;;;5054641;28;20028;-74
2023/05/02 10:27:24;;;;;;;3.88;0.20;;;14.30;87.00;;;;;;5054673;28;20112;-75
2023/05/02 10:29:50;;;;;;;3.08;0.00;;;14.30;88.40;;;;;;5054605;28;20110;-75
2023/05/02 10:32:17;;;;;;;6.07;0.75;;;14.30;89.90;;;;;;5048646;28;20017;-73
2023/05/02 10:34:45;;;;;;;6.05;0.52;;;14.40;89.00;;;;;;5074657;28;20025;-74
2023/05/02 10:37:11;;;;;;;3.92;0.15;;;14.30;85.80;;;;;;5074717;28;20056;-74
2023/05/02 10:39:37;;;;;;;2.28;0.00;;;14.30;87.30;;;;;;5074610;28;20036;-73
2023/05/02 10:42:05;;;;;;;3.22;0.15;;;14.30;90.10;;;;;;5056575;28;20024;-73
2023/05/02 10:44:38;;;;;;;1.25;0.45;;;14.30;90.50;;;;;;5074503;28;20062;-74
2023/05/02 10:47:25;;;;;;;1.25;0.00;;;14.60;89.40;;;;;;5055072;28;20025;-74
2023/05/02 10:49:51;;;;;;;3.13;0.30;;;14.60;90.10;;;;;;5036550;28;20052;-74
2023/05/02 10:52:34;;;;;;;4.38;0.13;;;14.90;85.60;;;;;;5054236;28;20031;-74
2023/05/02 10:55:18;;;;;;;2.72;0.35;;;14.90;83.10;;;;;;5036403;28;20025;-74
2023/05/02 10:57:58;;;;;;;2.17;0.00;;;15.10;81.50;;;;;;5054404;28;20031;-74
2023/05/02 11:00:26;;;;;;;4.90;0.22;;;15.00;84.60;;;;;;5067660;28;20458;-74
2023/05/02 11:02:52;;;;;;;1.65;0.00;;;15.10;83.90;;;;;;5074794;28;20060;-74
2023/05/02 11:05:17;;;;;;;0.47;0.00;;;15.00;77.50;;;;;;5056382;28;20071;-73
2023/05/02 11:07:43;;;;;;;6.32;0.73;;;14.90;77.40;;;;;;5055975;28;20112;-74
2023/05/02 11:10:20;;;;;;;0.90;0.10;;;14.90;80.30;;;;;;5056058;28;20029;-74
2023/05/02 11:12:51;;;;;;;4.68;0.10;;;15.10;84.40;;;;;;5073614;28;20025;-75
2023/05/02 11:15:28;;;;;;;3.20;0.05;;;15.30;81.00;;;;;;5053946;28;20365;-74
2023/05/02 11:18:13;;;;;;;1.98;0.10;;;14.90;80.50;;;;;;5053781;28;20100;-74
2023/05/02 11:20:40;;;;;;;3.38;0.38;;;14.80;79.60;;;;;;5035844;28;20098;-75
2023/05/02 11:23:15;;;;;;;2.40;0.05;;;14.80;77.10;;;;;;5035896;28;20028;-75
2023/05/02 11:25:46;;;;;;;1.88;0.20;;;15.20;78.30;;;;;;5054232;28;20025;-75
2023/05/02 11:28:55;;;;;;;2.25;0.10;;;15.10;74.60;;;;;;5064808;28;20047;-75
2023/05/02 11:31:26;;;;;;;2.80;0.10;;;15.00;76.40;;;;;;5073609;28;20031;-75
2023/05/02 11:33:55;;;;;;;1.83;0.15;;;15.20;78.10;;;;;;5073548;28;20028;-74
2023/05/02 11:36:34;;;;;;;2.92;0.10;;;15.50;79.90;;;;;;5055588;28;20392;-75
2023/05/02 11:39:04;;;;;;;2.35;0.57;;;15.40;78.30;;;;;;5055424;28;20048;-75
2023/05/02 11:41:40;;;;;;;1.85;0.28;;;15.80;75.40;;;;;;5067073;28;20423;-75
2023/05/02 11:44:06;;;;;;;1.65;0.10;;;16.10;76.00;;;;;;5035643;28;20369;-74
2023/05/02 11:46:32;;;;;;;4.03;0.17;;;16.60;76.40;;;;;;5053339;28;20017;-74
2023/05/02 11:48:58;;;;;;;4.00;0.22;;;16.80;71.70;;;;;;5053283;28;20029;-75
2023/05/02 11:51:24;;;;;;;7.13;0.40;;;18.00;71.20;;;;;;5035459;28;20384;-75
2023/05/02 11:53:50;;;;;;;7.55;0.35;;;17.70;69.50;;;;;;5035436;28;20039;-75
2023/05/02 11:56:23;;;;;;;1.88;0.10;;;17.00;68.70;;;;;;5065799;28;20025;-75
2023/05/02 11:59:00;;;;;;;3.70;0.10;;;16.80;69.20;;;;;;5055177;28;20082;-75
2023/05/02 12:01:26;;;;;;;5.85;0.05;;;16.80;69.00;;;;;;5055493;28;20020;-75
2023/05/02 12:04:06;;;;;;;2.05;0.28;;;16.40;71.00;;;;;;5064119;28;20361;-75
2023/05/02 12:06:32;;;;;;;0.43;0.00;;;16.40;70.30;;;;;;5053157;28;20468;-75
2023/05/02 12:09:09;;;;;;;3.03;0.80;;;16.20;69.50;;;;;;5035078;28;20028;-75
2023/05/02 12:11:37;;;;;;;3.97;0.80;;;16.30;69.70;;;;;;5035166;28;20037;-75
2023/05/02 12:14:03;;;;;;;3.47;0.38;;;16.80;75.60;;;;;;5053087;28;20473;-74
2023/05/02 12:16:29;;;;;;;2.08;0.03;;;17.30;68.60;;;;;;5053022;28;20017;-74
2023/05/02 12:18:58;;;;;;;1.92;0.10;;;17.40;68.70;;;;;;5051691;28;20021;-74
2023/05/02 12:21:24;;;;;;;4.22;0.00;;;18.40;66.00;;;;;;5055054;28;20492;-74
2023/05/02 12:23:50;;;;;;;4.28;0.47;;;16.80;66.90;;;;;;5073478;28;20020;-75
2023/05/02 12:26:21;;;;;;;4.80;0.63;;;16.90;69.80;;;;;;5073009;28;20020;-75
2023/05/02 12:28:53;;;;;;;9.25;0.75;;;17.40;66.40;;;;;;5072903;28;20077;-75
2023/05/02 12:31:19;;;;;;;3.58;0.20;;;;;;;;;;5051138;28;20041;-75
2023/05/02 12:33:50;;;;;;;5.82;0.43;;;17.50;67.40;;;;;;5052918;28;20086;-75
2023/05/02 12:36:17;;;;;;;0.35;0.20;;;16.90;65.10;;;;;;5053489;28;20017;-75
2023/05/02 12:38:55;;;;;;;2.22;0.10;;;16.60;69.00;;;;;;5052842;28;20354;-75
2023/05/02 12:41:31;;;;;;;3.35;0.15;;;16.70;70.10;;;;;;5052968;28;20021;-75
2023/05/02 12:43:59;;;;;;;3.85;0.65;;;16.90;63.10;;;;;;5034866;28;20021;-75
2023/05/02 12:46:27;;;;;;;4.63;0.20;;;17.00;65.50;;;;;;5065022;28;20024;-75
2023/05/02 12:49:08;;;;;;;2.42;0.00;;;17.00;69.10;;;;;;5073808;28;20056;-75
2023/05/02 12:51:35;;;;;;;4.43;0.43;;;17.00;66.70;;;;;;5076705;28;20389;-75
2023/05/02 12:54:01;;;;;;;7.13;0.63;;;16.90;65.20;;;;;;5058730;28;20040;-75
2023/05/02 12:56:31;;;;;;;4.88;0.25;;;17.00;64.20;;;;;;5076508;28;20016;-75